sensor_id;sensor_type;location;lat;lon;timestamp;pressure;altitude;pressure_sealevel;temperature;humidity
10518;BME280;5307;42.548;22.968;2023-04-09T00:00:11;94051.13;;;3.39;100.00
10518;BME280;5307;42.548;22.968;2023-04-09T00:02:44;94056.97;;;3.26;100.00
10518;BME280;5307;42.548;22.968;2023-04-09T00:05:11;94050.75;;;3.33;100.00
10518;BME280;5307;42.548;22.968;2023-04-09T00:07:39;94059.22;;;3.39;100.00
10518;BME280;5307;42.548;22.968;2023-04-09T00:10:07;94050.81;;;3.26;100.00
10518;BME280;5307;42.548;22.968;2023-04-09T00:12:34;94053.78;;;3.42;100.00
10518;BME280;5307;42.548;22.968;2023-04-09T00:15:02;94047.91;;;3.51;100.00
10518;BME280;5307;42.548;22.968;2023-04-09T00:17:29;94046.88;;;3.34;100.00
10518;BME280;5307;42.548;22.968;2023-04-09T00:19:55;94049.94;;;3.36;100.00
10518;BME280;5307;42.548;22.968;2023-04-09T00:22:22;94052.72;;;3.29;100.00
10518;BME280;5307;42.548;22.968;2023-04-09T00:24:51;94059.56;;;3.37;100.00
10518;BME280;5307;42.548;22.968;2023-04-09T00:27:17;94064.59;;;3.35;100.00
10518;BME280;5307;42.548;22.968;2023-04-09T00:29:44;94058.91;;;3.26;100.00
10518;BME280;5307;42.548;22.968;2023-04-09T00:32:12;94065.81;;;3.31;100.00
10518;BME280;5307;42.548;22.968;2023-04-09T00:34:38;94067.69;;;3.37;100.00
10518;BME280;5307;42.548;22.968;2023-04-09T00:37:05;94065.00;;;3.34;100.00
10518;BME280;5307;42.548;22.968;2023-04-09T00:39:32;94060.47;;;3.20;100.00
10518;BME280;5307;42.548;22.968;2023-04-09T00:42:00;94068.13;;;3.28;100.00
10518;BME280;5307;42.548;22.968;2023-04-09T00:44:27;94069.66;;;3.30;100.00
10518;BME280;5307;42.548;22.968;2023-04-09T00:46:54;94050.81;;;3.26;100.00
10518;BME280;5307;42.548;22.968;2023-04-09T00:49:24;94060.84;;;3.22;100.00
10518;BME280;5307;42.548;22.968;2023-04-09T00:51:51;94061.59;;;3.26;100.00
10518;BME280;5307;42.548;22.968;2023-04-09T00:54:18;94065.91;;;3.13;100.00
10518;BME280;5307;42.548;22.968;2023-04-09T00:56:45;94072.41;;;3.19;100.00
10518;BME280;5307;42.548;22.968;2023-04-09T00:59:14;94077.72;;;3.33;100.00
10518;BME280;5307;42.548;22.968;2023-04-09T01:01:41;94050.88;;;3.08;100.00
10518;BME280;5307;42.548;22.968;2023-04-09T01:04:08;94075.84;;;3.23;100.00
10518;BME280;5307;42.548;22.968;2023-04-09T01:06:41;94060.88;;;3.15;100.00
10518;BME280;5307;42.548;22.968;2023-04-09T01:09:15;94071.66;;;3.18;100.00
10518;BME280;5307;42.548;22.968;2023-04-09T01:11:50;94072.72;;;3.35;100.00
10518;BME280;5307;42.548;22.968;2023-04-09T01:14:42;94075.41;;;3.35;100.00
10518;BME280;5307;42.548;22.968;2023-04-09T01:17:15;94066.41;;;3.56;100.00
10518;BME280;5307;42.548;22.968;2023-04-09T01:19:47;94070.69;;;3.50;100.00
10518;BME280;5307;42.548;22.968;2023-04-09T01:22:34;94071.50;;;3.43;100.00
10518;BME280;5307;42.548;22.968;2023-04-09T01:25:08;94073.78;;;3.48;100.00
10518;BME280;5307;42.548;22.968;2023-04-09T01:27:50;94069.16;;;3.49;100.00
10518;BME280;5307;42.548;22.968;2023-04-09T01:30:22;94073.78;;;3.48;100.00
10518;BME280;5307;42.548;22.968;2023-04-09T01:32:49;94066.03;;;3.50;100.00
10518;BME280;5307;42.548;22.968;2023-04-09T01:35:18;94066.84;;;3.47;100.00
10518;BME280;5307;42.548;22.968;2023-04-09T01:37:45;94063.34;;;3.50;100.00
10518;BME280;5307;42.548;22.968;2023-04-09T01:40:13;94063.84;;;3.38;100.00
10518;BME280;5307;42.548;22.968;2023-04-09T01:42:41;94063.78;;;3.45;100.00
10518;BME280;5307;42.548;22.968;2023-04-09T01:45:09;94063.81;;;3.42;100.00
10518;BME280;5307;42.548;22.968;2023-04-09T01:47:39;94059.50;;;3.48;100.00
10518;BME280;5307;42.548;22.968;2023-04-09T01:50:06;94049.91;;;3.43;100.00
10518;BME280;5307;42.548;22.968;2023-04-09T01:52:33;94056.97;;;3.23;100.00
10518;BME280;5307;42.548;22.968;2023-04-09T01:55:00;94050.81;;;3.26;100.00
10518;BME280;5307;42.548;22.968;2023-04-09T01:57:27;94060.84;;;3.18;100.00
10518;BME280;5307;42.548;22.968;2023-04-09T01:59:54;94053.22;;;3.10;100.00
10518;BME280;5307;42.548;22.968;2023-04-09T02:02:29;94049.38;;;3.04;100.00
10518;BME280;5307;42.548;22.968;2023-04-09T02:05:00;94052.06;;;3.07;100.00
10518;BME280;5307;42.548;22.968;2023-04-09T02:07:34;94057.88;;;3.02;100.00
10518;BME280;5307;42.548;22.968;2023-04-09T02:10:09;94049.34;;;3.11;100.00
10518;BME280;5307;42.548;22.968;2023-04-09T02:12:37;94055.13;;;3.13;100.00
10518;BME280;5307;42.548;22.968;2023-04-09T02:15:06;94059.72;;;3.16;100.00
10518;BME280;5307;42.548;22.968;2023-04-09T02:17:32;94057.97;;;2.84;100.00
10518;BME280;5307;42.548;22.968;2023-04-09T02:20:01;94056.81;;;2.85;100.00
10518;BME280;5307;42.548;22.968;2023-04-09T02:22:28;94043.63;;;3.02;100.00
10518;BME280;5307;42.548;22.968;2023-04-09T02:24:54;94050.13;;;3.08;100.00
10518;BME280;5307;42.548;22.968;2023-04-09T02:27:21;94050.91;;;3.05;100.00
10518;BME280;5307;42.548;22.968;2023-04-09T02:29:49;94051.00;;;2.90;100.00
10518;BME280;5307;42.548;22.968;2023-04-09T02:32:16;94054.78;;;3.04;100.00
10518;BME280;5307;42.548;22.968;2023-04-09T02:34:43;94047.47;;;3.01;100.00
10518;BME280;5307;42.548;22.968;2023-04-09T02:37:11;94046.66;;;3.11;100.00
10518;BME280;5307;42.548;22.968;2023-04-09T02:39:38;94048.56;;;3.14;100.00
10518;BME280;5307;42.548;22.968;2023-04-09T02:42:05;94038.22;;;3.02;100.00
10518;BME280;5307;42.548;22.968;2023-04-09T02:44:32;94048.56;;;3.14;100.00
10518;BME280;5307;42.548;22.968;2023-04-09T02:46:59;94044.34;;;3.13;100.00
10518;BME280;5307;42.548;22.968;2023-04-09T02:49:26;94047.75;;;3.17;100.00
10518;BME280;5307;42.548;22.968;2023-04-09T02:51:53;94045.44;;;3.19;100.00
10518;BME280;5307;42.548;22.968;2023-04-09T02:54:21;94052.78;;;3.15;100.00
10518;BME280;5307;42.548;22.968;2023-04-09T02:56:48;94042.38;;;3.17;100.00
10518;BME280;5307;42.548;22.968;2023-04-09T02:59:15;94042.78;;;3.08;100.00
10518;BME280;5307;42.548;22.968;2023-04-09T03:01:42;94045.13;;;3.10;100.00
10518;BME280;5307;42.548;22.968;2023-04-09T03:04:08;94049.06;;;2.91;100.00
10518;BME280;5307;42.548;22.968;2023-04-09T03:06:35;94033.69;;;2.84;100.00
10518;BME280;5307;42.548;22.968;2023-04-09T03:09:02;94034.69;;;3.08;100.00
10518;BME280;5307;42.548;22.968;2023-04-09T03:11:30;94037.09;;;2.92;100.00
10518;BME280;5307;42.548;22.968;2023-04-09T03:13:57;94025.19;;;2.89;100.00
10518;BME280;5307;42.548;22.968;2023-04-09T03:16:24;94035.13;;;3.03;100.00
10518;BME280;5307;42.548;22.968;2023-04-09T03:18:51;94036.63;;;3.08;100.00
10518;BME280;5307;42.548;22.968;2023-04-09T03:21:18;94033.06;;;3.25;100.00
10518;BME280;5307;42.548;22.968;2023-04-09T03:23:45;94037.31;;;3.22;100.00
10518;BME280;5307;42.548;22.968;2023-04-09T03:26:12;94043.22;;;3.03;100.00
10518;BME280;5307;42.548;22.968;2023-04-09T03:28:40;94044.25;;;3.23;100.00
10518;BME280;5307;42.548;22.968;2023-04-09T03:31:07;94037.09;;;2.95;100.00
10518;BME280;5307;42.548;22.968;2023-04-09T03:33:34;94036.63;;;3.08;100.00
10518;BME280;5307;42.548;22.968;2023-04-09T03:36:00;94043.25;;;3.00;100.00
10518;BME280;5307;42.548;22.968;2023-04-09T03:38:27;94038.19;;;3.05;100.00
10518;BME280;5307;42.548;22.968;2023-04-09T03:40:55;94043.97;;;3.07;100.00
10518;BME280;5307;42.548;22.968;2023-04-09T03:43:22;94017.91;;;2.79;100.00
10518;BME280;5307;42.548;22.968;2023-04-09T03:45:50;94038.13;;;3.16;100.00
10518;BME280;5307;42.548;22.968;2023-04-09T03:48:17;94043.94;;;3.14;100.00
10518;BME280;5307;42.548;22.968;2023-04-09T03:50:43;94044.63;;;3.22;100.00
10518;BME280;5307;42.548;22.968;2023-04-09T03:53:10;94044.75;;;3.04;100.00
10518;BME280;5307;42.548;22.968;2023-04-09T03:55:37;94046.34;;;2.94;100.00
10518;BME280;5307;42.548;22.968;2023-04-09T03:58:04;94050.53;;;3.03;100.00
10518;BME280;5307;42.548;22.968;2023-04-09T04:00:31;94053.19;;;3.13;100.00
10518;BME280;5307;42.548;22.968;2023-04-09T04:02:59;94053.25;;;2.95;100.00
10518;BME280;5307;42.548;22.968;2023-04-09T04:05:26;94060.53;;;3.06;100.00
10518;BME280;5307;42.548;22.968;2023-04-09T04:07:53;94055.53;;;3.04;100.00
10518;BME280;5307;42.548;22.968;2023-04-09T04:10:19;94061.72;;;3.01;100.00
10518;BME280;5307;42.548;22.968;2023-04-09T04:12:46;94061.25;;;3.17;100.00
10518;BME280;5307;42.548;22.968;2023-04-09T04:15:13;94061.25;;;3.17;100.00
10518;BME280;5307;42.548;22.968;2023-04-09T04:17:40;94064.28;;;3.22;100.00
10518;BME280;5307;42.548;22.968;2023-04-09T04:20:09;94066.22;;;3.22;100.00
10518;BME280;5307;42.548;22.968;2023-04-09T04:22:38;94063.06;;;3.34;100.00
10518;BME280;5307;42.548;22.968;2023-04-09T04:25:05;94062.69;;;3.36;100.00
10518;BME280;5307;42.548;22.968;2023-04-09T04:27:32;94059.66;;;3.23;100.00
10518;BME280;5307;42.548;22.968;2023-04-09T04:29:59;94063.88;;;3.31;100.00
10518;BME280;5307;42.548;22.968;2023-04-09T04:32:26;94073.03;;;3.44;100.00
10518;BME280;5307;42.548;22.968;2023-04-09T04:34:53;94065.69;;;3.48;100.00
10518;BME280;5307;42.548;22.968;2023-04-09T04:37:21;94071.44;;;3.50;100.00
10518;BME280;5307;42.548;22.968;2023-04-09T04:39:48;94063.59;;;3.70;100.00
10518;BME280;5307;42.548;22.968;2023-04-09T04:42:15;94065.53;;;3.70;100.00
10518;BME280;5307;42.548;22.968;2023-04-09T04:44:42;94059.69;;;3.75;100.00
10518;BME280;5307;42.548;22.968;2023-04-09T04:47:10;94063.50;;;3.84;100.00
10518;BME280;5307;42.548;22.968;2023-04-09T04:49:37;94071.34;;;3.68;100.00
10518;BME280;5307;42.548;22.968;2023-04-09T04:52:04;94059.88;;;3.53;100.00
10518;BME280;5307;42.548;22.968;2023-04-09T04:54:33;94053.69;;;3.56;100.00
10518;BME280;5307;42.548;22.968;2023-04-09T04:57:00;94055.94;;;3.62;100.00
10518;BME280;5307;42.548;22.968;2023-04-09T04:59:27;94068.97;;;3.74;100.00
10518;BME280;5307;42.548;22.968;2023-04-09T05:01:54;94062.41;;;3.75;100.00
10518;BME280;5307;42.548;22.968;2023-04-09T05:04:21;94059.66;;;3.82;100.00
10518;BME280;5307;42.548;22.968;2023-04-09T05:06:47;94058.38;;;3.97;100.00
10518;BME280;5307;42.548;22.968;2023-04-09T05:09:14;94058.00;;;3.95;100.00
10518;BME280;5307;42.548;22.968;2023-04-09T05:11:42;94056.38;;;4.01;100.00
10518;BME280;5307;42.548;22.968;2023-04-09T05:14:09;94051.28;;;4.10;100.00
10518;BME280;5307;42.548;22.968;2023-04-09T05:16:37;94066.44;;;4.01;100.00
10518;BME280;5307;42.548;22.968;2023-04-09T05:19:04;94065.56;;;4.11;100.00
10518;BME280;5307;42.548;22.968;2023-04-09T05:21:31;94066.00;;;4.06;100.00
10518;BME280;5307;42.548;22.968;2023-04-09T05:23:58;94064.53;;;4.35;100.00
10518;BME280;5307;42.548;22.968;2023-04-09T05:26:25;94068.88;;;4.29;100.00
10518;BME280;5307;42.548;22.968;2023-04-09T05:28:53;94076.94;;;4.33;100.00
10518;BME280;5307;42.548;22.968;2023-04-09T05:31:20;94063.16;;;4.20;100.00
10518;BME280;5307;42.548;22.968;2023-04-09T05:33:47;94065.31;;;4.36;100.00
10518;BME280;5307;42.548;22.968;2023-04-09T05:36:14;94072.28;;;4.37;100.00
10518;BME280;5307;42.548;22.968;2023-04-09T05:38:42;94068.47;;;4.31;100.00
10518;BME280;5307;42.548;22.968;2023-04-09T05:41:09;94077.53;;;4.51;100.00
10518;BME280;5307;42.548;22.968;2023-04-09T05:43:35;94074.97;;;4.37;100.00
10518;BME280;5307;42.548;22.968;2023-04-09T05:46:06;94074.34;;;4.60;100.00
10518;BME280;5307;42.548;22.968;2023-04-09T05:48:34;94077.00;;;4.63;100.00
10518;BME280;5307;42.548;22.968;2023-04-09T05:51:01;94078.09;;;4.69;100.00
10518;BME280;5307;42.548;22.968;2023-04-09T05:53:28;94071.81;;;4.80;100.00
10518;BME280;5307;42.548;22.968;2023-04-09T05:55:55;94070.63;;;4.81;100.00
10518;BME280;5307;42.548;22.968;2023-04-09T05:58:22;94075.25;;;4.84;100.00
10518;BME280;5307;42.548;22.968;2023-04-09T06:00:52;94073.00;;;4.79;100.00
10518;BME280;5307;42.548;22.968;2023-04-09T06:03:20;94084.31;;;5.00;100.00
10518;BME280;5307;42.548;22.968;2023-04-09T06:05:47;94084.47;;;5.17;100.00
10518;BME280;5307;42.548;22.968;2023-04-09T06:08:14;94086.00;;;5.21;100.00
10518;BME280;5307;42.548;22.968;2023-04-09T06:10:40;94084.56;;;5.40;100.00
10518;BME280;5307;42.548;22.968;2023-04-09T06:13:08;94080.06;;;5.57;100.00
10518;BME280;5307;42.548;22.968;2023-04-09T06:15:36;94079.97;;;5.37;100.00
10518;BME280;5307;42.548;22.968;2023-04-09T06:18:03;94094.22;;;5.68;100.00
10518;BME280;5307;42.548;22.968;2023-04-09T06:20:31;94088.06;;;5.68;100.00
10518;BME280;5307;42.548;22.968;2023-04-09T06:22:58;94088.25;;;5.80;100.00
10518;BME280;5307;42.548;22.968;2023-04-09T06:25:26;94081.03;;;5.70;100.00
10518;BME280;5307;42.548;22.968;2023-04-09T06:27:53;94084.16;;;5.69;100.00
10518;BME280;5307;42.548;22.968;2023-04-09T06:30:21;94092.22;;;5.99;100.00
10518;BME280;5307;42.548;22.968;2023-04-09T06:32:48;94087.88;;;6.05;100.00
10518;BME280;5307;42.548;22.968;2023-04-09T06:35:15;94088.06;;;5.94;100.00
10518;BME280;5307;42.548;22.968;2023-04-09T06:37:43;94082.28;;;6.16;100.00
10518;BME280;5307;42.548;22.968;2023-04-09T06:40:10;94090.34;;;6.43;100.00
10518;BME280;5307;42.548;22.968;2023-04-09T06:42:37;94088.53;;;6.36;100.00
10518;BME280;5307;42.548;22.968;2023-04-09T06:45:05;94083.72;;;6.44;100.00
10518;BME280;5307;42.548;22.968;2023-04-09T06:48:04;94086.22;;;6.78;100.00
10518;BME280;5307;42.548;22.968;2023-04-09T06:50:31;94089.22;;;6.83;100.00
10518;BME280;5307;42.548;22.968;2023-04-09T06:52:59;94090.38;;;6.63;100.00
10518;BME280;5307;42.548;22.968;2023-04-09T06:55:26;94076.94;;;6.55;100.00
10518;BME280;5307;42.548;22.968;2023-04-09T06:57:53;94079.38;;;6.90;100.00
10518;BME280;5307;42.548;22.968;2023-04-09T07:00:20;94075.09;;;6.92;100.00
10518;BME280;5307;42.548;22.968;2023-04-09T07:02:50;94074.84;;;7.03;100.00
10518;BME280;5307;42.548;22.968;2023-04-09T07:05:17;94078.41;;;7.20;100.00
10518;BME280;5307;42.548;22.968;2023-04-09T07:07:44;94079.91;;;7.40;100.00
10518;BME280;5307;42.548;22.968;2023-04-09T07:10:12;94079.22;;;7.17;100.00
10518;BME280;5307;42.548;22.968;2023-04-09T07:12:39;94073.41;;;7.54;100.00
10518;BME280;5307;42.548;22.968;2023-04-09T07:15:07;94072.41;;;7.81;100.00
10518;BME280;5307;42.548;22.968;2023-04-09T07:17:34;94073.09;;;8.01;100.00
10518;BME280;5307;42.548;22.968;2023-04-09T07:20:01;94063.34;;;8.03;100.00
10518;BME280;5307;42.548;22.968;2023-04-09T07:22:28;94071.22;;;8.14;100.00
10518;BME280;5307;42.548;22.968;2023-04-09T07:24:55;94078.44;;;8.53;100.00
10518;BME280;5307;42.548;22.968;2023-04-09T07:27:25;94066.13;;;8.32;100.00
10518;BME280;5307;42.548;22.968;2023-04-09T07:29:53;94069.34;;;8.44;100.00
10518;BME280;5307;42.548;22.968;2023-04-09T07:32:21;94069.59;;;8.49;100.00
10518;BME280;5307;42.548;22.968;2023-04-09T07:34:50;94070.44;;;8.62;100.00
10518;BME280;5307;42.548;22.968;2023-04-09T07:37:20;94061.59;;;8.87;100.00
10518;BME280;5307;42.548;22.968;2023-04-09T07:39:47;94076.59;;;8.79;100.00
10518;BME280;5307;42.548;22.968;2023-04-09T07:42:13;94074.16;;;8.98;100.00
10518;BME280;5307;42.548;22.968;2023-04-09T07:44:41;94070.53;;;8.59;100.00
10518;BME280;5307;42.548;22.968;2023-04-09T07:47:09;94077.25;;;8.54;100.00
10518;BME280;5307;42.548;22.968;2023-04-09T07:49:37;94074.69;;;8.92;100.00
10518;BME280;5307;42.548;22.968;2023-04-09T07:52:04;94067.16;;;9.38;100.00
10518;BME280;5307;42.548;22.968;2023-04-09T07:54:32;94059.47;;;9.08;97.41
10518;BME280;5307;42.548;22.968;2023-04-09T07:57:05;94066.19;;;8.90;97.38
10518;BME280;5307;42.548;22.968;2023-04-09T07:59:33;94067.81;;;9.30;97.83
10518;BME280;5307;42.548;22.968;2023-04-09T08:02:02;94066.97;;;9.71;96.90
10518;BME280;5307;42.548;22.968;2023-04-09T08:04:28;94052.78;;;9.89;93.33
10518;BME280;5307;42.548;22.968;2023-04-09T08:06:55;94054.63;;;10.30;89.25
10518;BME280;5307;42.548;22.968;2023-04-09T08:09:22;94047.63;;;10.63;90.58
10518;BME280;5307;42.548;22.968;2023-04-09T08:11:49;94049.81;;;10.90;86.58
10518;BME280;5307;42.548;22.968;2023-04-09T08:14:17;94043.59;;;10.55;83.35
10518;BME280;5307;42.548;22.968;2023-04-09T08:16:45;94040.59;;;10.75;79.64
10518;BME280;5307;42.548;22.968;2023-04-09T08:19:14;94038.00;;;11.15;80.36
10518;BME280;5307;42.548;22.968;2023-04-09T08:21:41;94048.31;;;10.55;79.90
10518;BME280;5307;42.548;22.968;2023-04-09T08:24:09;94047.41;;;10.70;77.47
10518;BME280;5307;42.548;22.968;2023-04-09T08:26:36;94039.59;;;11.04;75.66
10518;BME280;5307;42.548;22.968;2023-04-09T08:29:03;94050.91;;;10.93;79.61
10518;BME280;5307;42.548;22.968;2023-04-09T08:31:30;94052.91;;;10.80;81.11
10518;BME280;5307;42.548;22.968;2023-04-09T08:40:45;94045.88;;;10.35;81.19
10518;BME280;5307;42.548;22.968;2023-04-09T08:43:14;94039.91;;;9.89;82.12
10518;BME280;5307;42.548;22.968;2023-04-09T08:45:41;94043.03;;;10.26;83.26
10518;BME280;5307;42.548;22.968;2023-04-09T08:48:09;94040.72;;;10.37;84.31
10518;BME280;5307;42.548;22.968;2023-04-09T08:50:39;94040.59;;;10.40;83.10
10518;BME280;5307;42.548;22.968;2023-04-09T08:53:07;94037.81;;;10.31;82.22
10518;BME280;5307;42.548;22.968;2023-04-09T08:55:34;94035.72;;;10.10;82.19
10518;BME280;5307;42.548;22.968;2023-04-09T08:58:04;94042.31;;;9.87;79.14
10518;BME280;5307;42.548;22.968;2023-04-09T09:00:33;94045.25;;;9.93;80.07
10518;BME280;5307;42.548;22.968;2023-04-09T09:03:02;94038.81;;;9.99;81.87
10518;BME280;5307;42.548;22.968;2023-04-09T09:05:36;94036.94;;;10.09;83.01
10518;BME280;5307;42.548;22.968;2023-04-09T09:08:03;94028.78;;;9.71;84.50
10518;BME280;5307;42.548;22.968;2023-04-09T09:10:40;94038.94;;;9.58;82.92
10518;BME280;5307;42.548;22.968;2023-04-09T09:13:19;94036.75;;;9.78;84.22
10518;BME280;5307;42.548;22.968;2023-04-09T09:15:47;94032.19;;;9.75;83.06
10518;BME280;5307;42.548;22.968;2023-04-09T09:18:17;94034.91;;;9.49;80.80
10518;BME280;5307;42.548;22.968;2023-04-09T09:20:44;94037.94;;;9.51;80.79
10518;BME280;5307;42.548;22.968;2023-04-09T09:23:11;94028.47;;;9.69;82.90
10518;BME280;5307;42.548;22.968;2023-04-09T09:25:38;94032.63;;;9.61;84.03
10518;BME280;5307;42.548;22.968;2023-04-09T09:28:07;94039.56;;;9.23;82.82
10518;BME280;5307;42.548;22.968;2023-04-09T09:30:36;94029.72;;;9.13;81.15
10518;BME280;5307;42.548;22.968;2023-04-09T09:33:05;94034.22;;;9.20;80.99
10518;BME280;5307;42.548;22.968;2023-04-09T09:35:47;94027.03;;;9.51;83.88
10518;BME280;5307;42.548;22.968;2023-04-09T09:38:15;94033.25;;;9.52;82.24
10518;BME280;5307;42.548;22.968;2023-04-09T09:40:42;94027.94;;;9.74;84.26
10518;BME280;5307;42.548;22.968;2023-04-09T09:43:09;94018.16;;;9.98;83.23
10518;BME280;5307;42.548;22.968;2023-04-09T09:45:37;94019.97;;;10.39;81.52
10518;BME280;5307;42.548;22.968;2023-04-09T09:48:06;94009.28;;;10.32;77.78
10518;BME280;5307;42.548;22.968;2023-04-09T09:50:34;94010.91;;;10.43;77.78
10518;BME280;5307;42.548;22.968;2023-04-09T09:53:03;94020.19;;;10.67;78.47
10518;BME280;5307;42.548;22.968;2023-04-09T09:55:31;94013.69;;;10.52;77.30
10518;BME280;5307;42.548;22.968;2023-04-09T09:58:01;94015.09;;;10.09;75.22
10518;BME280;5307;42.548;22.968;2023-04-09T10:00:30;94011.28;;;10.06;76.00
10518;BME280;5307;42.548;22.968;2023-04-09T10:03:07;94011.50;;;10.12;75.85
10518;BME280;5307;42.548;22.968;2023-04-09T10:05:36;94013.00;;;10.26;78.72
10518;BME280;5307;42.548;22.968;2023-04-09T10:08:04;94006.94;;;9.96;75.49
10518;BME280;5307;42.548;22.968;2023-04-09T10:10:31;94016.47;;;10.39;77.27
10518;BME280;5307;42.548;22.968;2023-04-09T10:12:59;94002.91;;;10.01;73.77
10518;BME280;5307;42.548;22.968;2023-04-09T10:15:27;93994.75;;;9.88;72.20
10518;BME280;5307;42.548;22.968;2023-04-09T10:17:56;94017.88;;;9.71;73.56
10518;BME280;5307;42.548;22.968;2023-04-09T10:20:27;94017.47;;;9.72;73.65
10518;BME280;5307;42.548;22.968;2023-04-09T10:22:55;94019.50;;;9.94;77.33
10518;BME280;5307;42.548;22.968;2023-04-09T10:25:22;94016.31;;;9.95;76.36
10518;BME280;5307;42.548;22.968;2023-04-09T10:27:58;94019.84;;;9.83;73.96
10518;BME280;5307;42.548;22.968;2023-04-09T10:30:32;94013.84;;;9.88;73.94
10518;BME280;5307;42.548;22.968;2023-04-09T10:33:09;94010.66;;;10.02;75.08
10518;BME280;5307;42.548;22.968;2023-04-09T10:35:38;94013.75;;;9.53;75.64
10518;BME280;5307;42.548;22.968;2023-04-09T10:38:07;94024.44;;;9.48;75.56
10518;BME280;5307;42.548;22.968;2023-04-09T10:40:46;94019.19;;;9.79;80.10
10518;BME280;5307;42.548;22.968;2023-04-09T10:43:14;94019.84;;;9.83;83.26
10518;BME280;5307;42.548;22.968;2023-04-09T10:45:45;94020.69;;;9.93;84.32
10518;BME280;5307;42.548;22.968;2023-04-09T10:48:18;94018.97;;;9.86;80.82
10518;BME280;5307;42.548;22.968;2023-04-09T10:50:49;94013.00;;;10.13;83.23
10518;BME280;5307;42.548;22.968;2023-04-09T10:53:23;94009.75;;;10.53;84.93
10518;BME280;5307;42.548;22.968;2023-04-09T10:55:52;94004.69;;;10.42;81.23
10518;BME280;5307;42.548;22.968;2023-04-09T10:58:19;93984.09;;;10.28;83.37
10518;BME280;5307;42.548;22.968;2023-04-09T11:00:47;93995.44;;;10.27;80.49
10518;BME280;5307;42.548;22.968;2023-04-09T11:03:20;94002.84;;;10.26;83.38
10518;BME280;5307;42.548;22.968;2023-04-09T11:05:50;93994.91;;;10.54;87.58
10518;BME280;5307;42.548;22.968;2023-04-09T11:08:18;94002.19;;;9.75;83.58
10518;BME280;5307;42.548;22.968;2023-04-09T11:10:46;93998.75;;;9.96;85.58
10518;BME280;5307;42.548;22.968;2023-04-09T11:13:14;94001.28;;;9.91;84.65
10518;BME280;5307;42.548;22.968;2023-04-09T11:15:42;93989.38;;;9.97;86.83
10518;BME280;5307;42.548;22.968;2023-04-09T11:18:13;93997.66;;;9.94;90.00
10518;BME280;5307;42.548;22.968;2023-04-09T11:20:40;93980.81;;;9.61;87.83
10518;BME280;5307;42.548;22.968;2023-04-09T11:23:09;94000.53;;;9.77;86.24
10518;BME280;5307;42.548;22.968;2023-04-09T11:25:37;93999.44;;;9.88;85.75
10518;BME280;5307;42.548;22.968;2023-04-09T11:28:10;94002.38;;;9.42;82.62
10518;BME280;5307;42.548;22.968;2023-04-09T11:30:36;94000.97;;;9.50;80.90
10518;BME280;5307;42.548;22.968;2023-04-09T11:33:03;93999.91;;;9.73;81.98
10518;BME280;5307;42.548;22.968;2023-04-09T11:35:33;94001.44;;;9.49;82.04
10518;BME280;5307;42.548;22.968;2023-04-09T11:38:05;94001.09;;;9.21;82.34
10518;BME280;5307;42.548;22.968;2023-04-09T11:40:33;94004.03;;;9.40;84.26
10518;BME280;5307;42.548;22.968;2023-04-09T11:43:01;93999.03;;;9.51;83.70
10518;BME280;5307;42.548;22.968;2023-04-09T11:45:29;94002.75;;;9.57;82.41
10518;BME280;5307;42.548;22.968;2023-04-09T11:47:57;93987.59;;;9.31;82.74
10518;BME280;5307;42.548;22.968;2023-04-09T11:50:24;93991.03;;;9.57;82.95
10518;BME280;5307;42.548;22.968;2023-04-09T11:52:51;93996.94;;;9.68;84.90
10518;BME280;5307;42.548;22.968;2023-04-09T11:55:22;93994.78;;;9.63;84.40
10518;BME280;5307;42.548;22.968;2023-04-09T11:57:53;94005.78;;;9.46;84.74
10518;BME280;5307;42.548;22.968;2023-04-09T12:00:20;94001.63;;;9.67;88.61
10518;BME280;5307;42.548;22.968;2023-04-09T12:02:57;93999.66;;;9.68;96.43
10518;BME280;5307;42.548;22.968;2023-04-09T12:05:26;94009.28;;;9.60;99.57
10518;BME280;5307;42.548;22.968;2023-04-09T12:07:57;94014.72;;;9.34;100.00
10518;BME280;5307;42.548;22.968;2023-04-09T12:10:27;94003.94;;;9.43;100.00
10518;BME280;5307;42.548;22.968;2023-04-09T12:13:00;94018.31;;;9.31;100.00
10518;BME280;5307;42.548;22.968;2023-04-09T12:15:30;94016.44;;;9.28;100.00
10518;BME280;5307;42.548;22.968;2023-04-09T12:17:58;94014.94;;;9.52;100.00
10518;BME280;5307;42.548;22.968;2023-04-09T12:20:29;94010.34;;;9.37;100.00
10518;BME280;5307;42.548;22.968;2023-04-09T12:22:57;94013.41;;;9.26;100.00
10518;BME280;5307;42.548;22.968;2023-04-09T12:25:24;94010.03;;;9.47;100.00
10518;BME280;5307;42.548;22.968;2023-04-09T12:27:51;94013.63;;;9.19;100.00
10518;BME280;5307;42.548;22.968;2023-04-09T12:30:19;94005.78;;;9.34;100.00
10518;BME280;5307;42.548;22.968;2023-04-09T12:32:46;94002.06;;;9.40;100.00
10518;BME280;5307;42.548;22.968;2023-04-09T12:35:13;93997.69;;;9.43;100.00
10518;BME280;5307;42.548;22.968;2023-04-09T12:37:41;93989.31;;;9.50;98.15
10518;BME280;5307;42.548;22.968;2023-04-09T12:40:08;93974.59;;;9.60;94.76
10518;BME280;5307;42.548;22.968;2023-04-09T12:42:38;93982.34;;;9.62;96.53
10518;BME280;5307;42.548;22.968;2023-04-09T12:45:06;93982.53;;;9.55;95.25
10518;BME280;5307;42.548;22.968;2023-04-09T12:47:34;93983.31;;;9.55;92.83
10518;BME280;5307;42.548;22.968;2023-04-09T12:50:02;93975.47;;;9.57;93.76
10518;BME280;5307;42.548;22.968;2023-04-09T12:52:29;93980.25;;;9.66;97.29
10518;BME280;5307;42.548;22.968;2023-04-09T12:54:56;93973.16;;;9.56;96.03
10518;BME280;5307;42.548;22.968;2023-04-09T12:57:23;93974.16;;;9.62;95.23
10518;BME280;5307;42.548;22.968;2023-04-09T12:59:49;93979.66;;;9.96;97.74
10518;BME280;5307;42.548;22.968;2023-04-09T13:02:19;93975.22;;;9.90;95.18
10518;BME280;5307;42.548;22.968;2023-04-09T13:04:47;93964.78;;;9.63;89.92
10518;BME280;5307;42.548;22.968;2023-04-09T13:07:15;93964.22;;;9.42;90.64
10518;BME280;5307;42.548;22.968;2023-04-09T13:09:44;93957.69;;;9.52;93.45
10518;BME280;5307;42.548;22.968;2023-04-09T13:12:11;93955.69;;;9.78;94.68
10518;BME280;5307;42.548;22.968;2023-04-09T13:14:39;93954.16;;;9.90;100.00